createdAt,value
2023-05-02T00:00:40.074Z,10.28
2023-05-02T00:03:08.207Z,10.26
2023-05-02T00:05:37.098Z,10.19
2023-05-02T00:08:05.130Z,10.18
2023-05-02T00:10:33.038Z,10.18
2023-05-02T00:13:02.319Z,10.14
2023-05-02T00:15:30.250Z,10.15
2023-05-02T00:17:58.224Z,10.17
2023-05-02T00:20:26.851Z,10.15
2023-05-02T00:22:55.049Z,10.13
2023-05-02T00:25:22.957Z,10.13
2023-05-02T00:27:51.279Z,10.13
2023-05-02T00:30:21.243Z,10.09
2023-05-02T00:32:49.392Z,10.04
2023-05-02T00:35:17.590Z,10.04
2023-05-02T00:37:45.450Z,10.00
2023-05-02T00:40:14.481Z,10.01
2023-05-02T00:42:42.400Z,9.93
2023-05-02T00:45:10.794Z,9.95
2023-05-02T00:47:40.181Z,9.95
2023-05-02T00:50:09.454Z,9.96
2023-05-02T00:52:38.552Z,10.03
2023-05-02T00:55:08.022Z,10.04
2023-05-02T00:57:35.953Z,10.05
2023-05-02T01:00:04.927Z,10.03
2023-05-02T01:02:36.235Z,10.00
2023-05-02T01:05:13.178Z,10.03
2023-05-02T01:07:53.065Z,10.09
2023-05-02T01:10:26.753Z,10.08
2023-05-02T01:13:00.840Z,10.06
2023-05-02T01:16:50.852Z,10.05
2023-05-02T01:19:25.516Z,10.07
2023-05-02T01:21:55.270Z,10.06
2023-05-02T01:24:27.867Z,10.05
2023-05-02T01:27:03.925Z,10.03
2023-05-02T01:29:33.974Z,10.09
2023-05-02T01:32:03.499Z,10.02
2023-05-02T01:34:32.513Z,9.95
2023-05-02T01:37:02.289Z,9.99
2023-05-02T01:39:31.526Z,9.99
2023-05-02T01:42:00.473Z,9.95
2023-05-02T01:44:28.771Z,9.92
2023-05-02T01:46:58.899Z,9.98
2023-05-02T01:49:28.173Z,9.92
2023-05-02T01:51:56.850Z,9.88
2023-05-02T01:54:25.894Z,9.83
2023-05-02T01:56:54.379Z,9.91
2023-05-02T01:59:24.108Z,9.90
2023-05-02T02:01:52.928Z,9.89
2023-05-02T02:04:22.878Z,9.94
2023-05-02T02:06:53.609Z,9.89
2023-05-02T02:09:21.929Z,9.91
2023-05-02T02:11:53.840Z,9.99
2023-05-02T02:14:24.001Z,10.04
2023-05-02T02:16:54.833Z,10.09
2023-05-02T02:19:24.386Z,10.21
2023-05-02T02:21:52.605Z,10.18
2023-05-02T02:24:22.779Z,10.19
2023-05-02T02:26:50.768Z,10.21
2023-05-02T02:29:18.650Z,10.22
2023-05-02T02:31:47.673Z,10.24
2023-05-02T02:34:16.386Z,10.21
2023-05-02T02:36:49.284Z,10.27
2023-05-02T02:39:24.593Z,10.35
2023-05-02T02:42:03.674Z,10.35
2023-05-02T02:44:38.715Z,10.41
2023-05-02T02:47:10.556Z,10.34
2023-05-02T02:49:47.536Z,10.34
2023-05-02T02:52:22.888Z,10.33
2023-05-02T02:54:53.880Z,10.28
2023-05-02T02:57:28.641Z,10.37
2023-05-02T03:00:01.194Z,10.41
2023-05-02T03:02:32.879Z,10.41
2023-05-02T03:05:02.656Z,10.47
2023-05-02T03:07:32.853Z,10.49
2023-05-02T03:10:04.378Z,10.52
2023-05-02T03:12:34.684Z,10.53
2023-05-02T03:15:14.093Z,10.53
2023-05-02T03:17:44.051Z,10.53
2023-05-02T03:20:12.773Z,10.56
2023-05-02T03:22:42.398Z,10.61
2023-05-02T03:25:11.116Z,10.59
2023-05-02T03:27:42.817Z,10.59
2023-05-02T03:30:12.973Z,10.60
2023-05-02T03:32:40.997Z,10.63
2023-05-02T03:35:09.923Z,10.58
2023-05-02T03:37:44.117Z,10.47
2023-05-02T03:40:12.764Z,10.35
2023-05-02T03:42:41.403Z,10.33
2023-05-02T03:45:20.413Z,10.28
2023-05-02T03:47:50.415Z,10.02
2023-05-02T03:50:19.631Z,9.88
2023-05-02T03:52:51.635Z,9.71
2023-05-02T03:55:24.666Z,9.70
2023-05-02T03:57:53.358Z,9.64
2023-05-02T04:00:21.902Z,9.53
2023-05-02T04:02:57.290Z,9.16
2023-05-02T04:05:28.842Z,9.23
2023-05-02T04:07:59.330Z,9.18
2023-05-02T04:10:27.364Z,9.24
2023-05-02T04:12:59.361Z,9.13
2023-05-02T04:15:27.843Z,9.20
2023-05-02T04:17:56.592Z,9.24
2023-05-02T04:20:24.502Z,9.08
2023-05-02T04:22:54.683Z,8.96
2023-05-02T04:25:24.321Z,9.05
2023-05-02T04:27:54.890Z,9.13
2023-05-02T04:30:24.687Z,9.00
2023-05-02T04:33:01.532Z,8.92
2023-05-02T04:35:33.824Z,8.81
2023-05-02T04:38:02.062Z,8.76
2023-05-02T04:40:31.572Z,8.92
2023-05-02T04:43:05.117Z,8.84
2023-05-02T04:45:48.302Z,8.81
2023-05-02T04:48:25.314Z,8.75
2023-05-02T04:50:54.551Z,8.71
2023-05-02T04:53:23.476Z,8.81
2023-05-02T04:55:53.261Z,8.82
2023-05-02T04:58:21.451Z,8.60
2023-05-02T05:00:55.830Z,8.65
2023-05-02T05:03:24.737Z,8.66
2023-05-02T05:05:53.148Z,8.76
2023-05-02T05:08:23.265Z,8.70
2023-05-02T05:10:53.213Z,8.73
2023-05-02T05:13:22.227Z,8.64
2023-05-02T05:15:51.316Z,8.75
2023-05-02T05:18:21.859Z,8.80
2023-05-02T05:20:49.980Z,8.78
2023-05-02T05:23:17.818Z,8.82
2023-05-02T05:25:45.995Z,8.71
2023-05-02T05:28:19.830Z,8.66
2023-05-02T05:30:48.365Z,8.64
2023-05-02T05:33:21.062Z,8.61
2023-05-02T05:35:49.817Z,8.72
2023-05-02T05:38:17.739Z,8.82
2023-05-02T05:40:50.663Z,8.63
2023-05-02T05:43:20.522Z,8.62
2023-05-02T05:45:48.634Z,8.61
2023-05-02T05:48:17.370Z,8.39
2023-05-02T05:50:47.154Z,8.52
2023-05-02T05:53:15.580Z,8.51
2023-05-02T05:55:45.104Z,8.26
2023-05-02T05:58:13.207Z,8.29
2023-05-02T06:00:45.245Z,8.30
2023-05-02T06:03:13.373Z,8.34
2023-05-02T06:05:45.267Z,8.49
2023-05-02T06:08:13.228Z,8.56
2023-05-02T06:10:41.800Z,8.62
2023-05-02T06:13:10.281Z,8.69
2023-05-02T06:15:42.921Z,8.62
2023-05-02T06:18:12.022Z,8.73
2023-05-02T06:20:39.879Z,8.76
2023-05-02T06:23:07.854Z,8.55
2023-05-02T06:25:38.776Z,8.45
2023-05-02T06:28:08.572Z,8.45
2023-05-02T06:30:41.245Z,8.58
2023-05-02T06:33:18.737Z,8.58
2023-05-02T06:35:53.265Z,8.51
2023-05-02T06:38:21.891Z,8.38
2023-05-02T06:40:54.699Z,8.45
2023-05-02T06:43:22.731Z,8.42
2023-05-02T06:46:02.861Z,8.46
2023-05-02T06:48:32.609Z,8.81
2023-05-02T06:51:01.369Z,8.95
2023-05-02T06:53:31.079Z,9.09
2023-05-02T06:56:00.367Z,9.28
2023-05-02T06:58:28.325Z,9.14
2023-05-02T07:00:56.245Z,8.95
2023-05-02T07:03:25.031Z,8.78
2023-05-02T07:05:54.417Z,8.77
2023-05-02T07:08:23.973Z,9.02
2023-05-02T07:10:51.991Z,9.04
2023-05-02T07:13:19.856Z,9.13
2023-05-02T07:15:47.739Z,9.14
2023-05-02T07:18:15.690Z,9.22
2023-05-02T07:20:43.896Z,9.24
2023-05-02T07:23:13.480Z,9.43
2023-05-02T07:25:41.491Z,9.44
2023-05-02T07:28:09.454Z,9.49
2023-05-02T07:30:37.656Z,9.47
2023-05-02T07:33:05.890Z,9.78
2023-05-02T07:35:33.847Z,9.94
2023-05-02T07:38:01.898Z,9.84
2023-05-02T07:40:31.135Z,9.92
2023-05-02T07:42:59.426Z,10.26
2023-05-02T07:45:27.372Z,10.17
2023-05-02T07:47:55.363Z,10.53
2023-05-02T07:50:23.947Z,11.04
2023-05-02T07:52:52.180Z,10.96
2023-05-02T07:55:20.359Z,10.82
2023-05-02T07:57:49.711Z,11.07
2023-05-02T08:00:18.851Z,11.53
2023-05-02T08:02:47.144Z,11.88
2023-05-02T08:05:15.398Z,12.11
2023-05-02T08:07:43.896Z,12.30
2023-05-02T08:10:12.305Z,12.67
2023-05-02T08:12:41.379Z,12.28
2023-05-02T08:15:13.496Z,12.30
2023-05-02T08:17:41.522Z,11.62
2023-05-02T08:20:10.093Z,11.82
2023-05-02T08:22:38.163Z,11.84
2023-05-02T08:25:12.397Z,12.01
2023-05-02T08:27:40.399Z,11.79
2023-05-02T08:30:10.647Z,11.51
2023-05-02T08:32:38.740Z,11.13
2023-05-02T08:35:08.217Z,10.51
2023-05-02T08:37:36.432Z,10.57
2023-05-02T08:40:05.398Z,10.68
2023-05-02T08:42:34.782Z,10.96
2023-05-02T08:45:02.769Z,11.15
2023-05-02T08:47:33.296Z,11.41
2023-05-02T08:50:01.598Z,11.78
2023-05-02T08:52:30.303Z,11.54
2023-05-02T08:54:58.524Z,11.36
2023-05-02T08:57:26.840Z,11.81
2023-05-02T08:59:55.754Z,11.90
2023-05-02T09:02:31.573Z,11.34
2023-05-02T09:05:02.764Z,11.10
2023-05-02T09:07:31.035Z,11.09
2023-05-02T09:09:59.207Z,11.26
2023-05-02T09:12:27.695Z,11.17
2023-05-02T09:15:21.162Z,10.81
2023-05-02T09:17:49.523Z,10.70
2023-05-02T09:20:18.763Z,10.60
2023-05-02T09:22:50.765Z,10.77
2023-05-02T09:25:19.306Z,11.61
2023-05-02T09:27:51.899Z,12.60
2023-05-02T09:30:21.232Z,12.09
2023-05-02T09:32:51.517Z,11.82
2023-05-02T09:35:24.614Z,11.66
2023-05-02T09:37:53.827Z,11.76
2023-05-02T09:40:22.078Z,11.51
2023-05-02T09:42:50.152Z,11.40
2023-05-02T09:45:23.028Z,11.23
2023-05-02T09:47:51.142Z,11.73
2023-05-02T09:50:35.650Z,11.78
2023-05-02T09:53:07.389Z,11.74
2023-05-02T09:55:35.458Z,11.83
2023-05-02T09:58:04.052Z,12.37
2023-05-02T10:00:42.403Z,12.53
2023-05-02T10:03:18.013Z,12.29
2023-05-02T10:05:48.152Z,12.56
2023-05-02T10:08:17.966Z,12.29
2023-05-02T10:10:48.178Z,12.17
2023-05-02T10:13:18.312Z,11.89
2023-05-02T10:15:47.162Z,11.65
2023-05-02T10:18:17.861Z,11.05
2023-05-02T10:20:50.641Z,11.26
2023-05-02T10:23:19.113Z,11.28
2023-05-02T10:25:47.441Z,11.17
2023-05-02T10:28:15.846Z,11.03
2023-05-02T10:30:44.776Z,11.12
2023-05-02T10:33:15.186Z,10.77
2023-05-02T10:35:45.796Z,10.79
2023-05-02T10:38:15.730Z,10.74
2023-05-02T10:40:44.276Z,10.80
2023-05-02T10:43:16.502Z,10.97
2023-05-02T10:45:44.459Z,11.39
2023-05-02T10:48:19.808Z,11.44
2023-05-02T10:50:48.834Z,12.10
2023-05-02T10:53:25.572Z,12.21
2023-05-02T10:56:13.473Z,12.08
2023-05-02T10:58:43.108Z,12.63
2023-05-02T11:01:39.950Z,12.63
2023-05-02T11:04:09.365Z,12.78
2023-05-02T11:06:38.569Z,12.41
2023-05-02T11:09:34.285Z,12.33
2023-05-02T11:12:04.724Z,12.12
2023-05-02T11:14:49.814Z,11.75
2023-05-02T11:17:18.625Z,11.73
2023-05-02T11:20:29.213Z,11.43
2023-05-02T11:23:02.422Z,11.53
2023-05-02T11:25:36.669Z,11.46
2023-05-02T11:28:07.944Z,11.38
2023-05-02T11:30:40.620Z,11.83
2023-05-02T11:33:15.979Z,12.00
2023-05-02T11:35:51.246Z,12.33
2023-05-02T11:38:21.583Z,12.18
2023-05-02T11:40:58.891Z,12.29
2023-05-02T11:43:30.802Z,12.04
2023-05-02T11:46:00.753Z,11.76
2023-05-02T11:48:28.850Z,11.73
2023-05-02T11:50:58.252Z,11.76
2023-05-02T11:53:28.916Z,11.67
2023-05-02T11:55:59.305Z,12.01
2023-05-02T11:58:29.882Z,12.19
2023-05-02T12:00:58.108Z,12.57
2023-05-02T12:03:29.758Z,12.48
2023-05-02T12:05:58.397Z,12.40
2023-05-02T12:08:28.101Z,12.45
2023-05-02T12:10:58.214Z,12.46
2023-05-02T12:13:27.300Z,12.51
2023-05-02T12:15:55.969Z,12.65
2023-05-02T12:18:25.072Z,12.61
2023-05-02T12:20:54.212Z,12.59
2023-05-02T12:23:23.536Z,12.62
2023-05-02T12:25:51.597Z,12.87
2023-05-02T12:28:21.256Z,12.90
2023-05-02T12:30:50.940Z,12.97
2023-05-02T12:33:19.163Z,12.83
2023-05-02T12:35:47.651Z,12.86
2023-05-02T12:38:17.452Z,12.96
2023-05-02T12:40:52.869Z,12.84
2023-05-02T12:43:22.906Z,12.98
2023-05-02T12:45:53.871Z,13.03
2023-05-02T12:48:24.350Z,13.06
2023-05-02T12:50:52.980Z,13.26
2023-05-02T12:53:42.513Z,13.22
2023-05-02T12:56:10.868Z,13.11
2023-05-02T12:58:44.431Z,13.38
2023-05-02T13:01:14.399Z,13.47
2023-05-02T13:03:42.963Z,13.16
2023-05-02T13:06:11.170Z,13.27
2023-05-02T13:08:39.704Z,13.21
2023-05-02T13:11:07.663Z,13.09
2023-05-02T13:13:35.662Z,13.41
2023-05-02T13:16:05.171Z,13.55
2023-05-02T13:18:33.330Z,13.33
2023-05-02T13:21:01.353Z,13.20
2023-05-02T13:23:29.257Z,13.24
2023-05-02T13:25:57.589Z,13.28
2023-05-02T13:28:25.970Z,13.42
2023-05-02T13:30:53.843Z,13.59
2023-05-02T13:33:23.149Z,13.46
2023-05-02T13:35:51.046Z,13.43
2023-05-02T13:38:19.441Z,13.53
2023-05-02T13:40:47.500Z,13.74
2023-05-02T13:43:15.461Z,13.69
2023-05-02T13:45:43.506Z,13.74
2023-05-02T13:48:11.602Z,13.68
2023-05-02T13:50:40.836Z,13.30
2023-05-02T13:53:08.695Z,13.00
2023-05-02T13:55:36.564Z,13.30
2023-05-02T13:58:04.837Z,13.18
2023-05-02T14:00:32.913Z,13.21
2023-05-02T14:03:01.358Z,13.20
2023-05-02T14:05:29.313Z,12.93
2023-05-02T14:07:58.628Z,12.89
2023-05-02T14:10:29.602Z,12.99
2023-05-02T14:12:58.704Z,12.88
2023-05-02T14:15:27.164Z,13.03
2023-05-02T14:17:55.126Z,13.25
2023-05-02T14:20:23.895Z,13.45
2023-05-02T14:22:51.877Z,13.14
2023-05-02T14:25:21.230Z,13.11
2023-05-02T14:27:49.130Z,13.26
2023-05-02T14:30:17.059Z,13.27
2023-05-02T14:32:44.991Z,13.11
2023-05-02T14:35:12.921Z,13.10
2023-05-02T14:37:40.825Z,13.16
2023-05-02T14:40:09.961Z,13.28
2023-05-02T14:42:39.190Z,13.21
2023-05-02T14:45:08.273Z,13.01
2023-05-02T14:47:36.495Z,13.31
2023-05-02T14:50:05.073Z,13.48
2023-05-02T14:52:33.634Z,13.58
2023-05-02T14:55:01.763Z,13.58
2023-05-02T14:57:30.072Z,13.78
2023-05-02T14:59:59.805Z,13.84
2023-05-02T15:02:28.263Z,13.84
2023-05-02T15:04:56.486Z,13.66
2023-05-02T15:07:24.675Z,13.84
2023-05-02T15:09:52.639Z,13.96
2023-05-02T15:12:20.518Z,13.98
2023-05-02T15:14:48.421Z,13.55
2023-05-02T15:17:17.663Z,13.41
2023-05-02T15:19:45.560Z,13.25
2023-05-02T15:22:13.628Z,13.17
2023-05-02T15:24:41.509Z,13.08
2023-05-02T15:27:09.853Z,12.93
2023-05-02T15:29:38.376Z,12.66
2023-05-02T15:32:06.463Z,12.69
2023-05-02T15:34:36.026Z,12.64
2023-05-02T15:37:04.213Z,12.66
2023-05-02T15:39:32.301Z,12.53
2023-05-02T15:42:03.778Z,12.56
2023-05-02T15:44:31.654Z,12.50
2023-05-02T15:46:59.520Z,12.45
2023-05-02T15:49:31.671Z,12.51
2023-05-02T15:52:07.007Z,12.61
2023-05-02T15:54:39.452Z,12.46
2023-05-02T15:57:07.674Z,12.28
2023-05-02T15:59:36.408Z,12.39
2023-05-02T16:02:06.486Z,12.38
2023-05-02T16:04:34.979Z,12.37
2023-05-02T16:07:04.433Z,12.37
2023-05-02T16:09:32.433Z,12.08
2023-05-02T16:12:01.474Z,11.86
2023-05-02T16:14:29.438Z,11.90
2023-05-02T16:16:59.868Z,11.85
2023-05-02T16:19:28.170Z,11.82
2023-05-02T16:21:56.134Z,11.81
2023-05-02T16:24:28.154Z,11.90
2023-05-02T16:26:56.122Z,11.91
2023-05-02T16:29:24.088Z,11.59
2023-05-02T16:31:52.410Z,11.64
2023-05-02T16:34:20.475Z,11.63
2023-05-02T16:36:49.851Z,11.58
2023-05-02T16:39:17.991Z,11.42
2023-05-02T16:41:49.447Z,11.41
2023-05-02T16:44:17.516Z,11.43
2023-05-02T16:46:47.763Z,11.46
2023-05-02T16:49:15.877Z,11.57
2023-05-02T16:51:43.732Z,11.49
2023-05-02T16:54:11.799Z,11.47
2023-05-02T16:56:41.325Z,11.54
2023-05-02T16:59:12.104Z,11.49
2023-05-02T17:01:40.474Z,11.31
2023-05-02T17:04:08.806Z,11.28
2023-05-02T17:06:36.721Z,11.22
2023-05-02T17:09:05.076Z,11.20
2023-05-02T17:11:33.019Z,11.35
2023-05-02T17:14:02.123Z,11.25
2023-05-02T17:16:31.754Z,11.15
2023-05-02T17:18:59.843Z,11.12
2023-05-02T17:21:27.851Z,11.04
2023-05-02T17:23:55.974Z,10.93
2023-05-02T17:26:24.536Z,10.98
2023-05-02T17:28:53.690Z,11.12
2023-05-02T17:31:21.732Z,11.04
2023-05-02T17:33:51.075Z,11.10
2023-05-02T17:36:18.941Z,10.95
2023-05-02T17:38:46.834Z,10.86
2023-05-02T17:41:15.511Z,10.96
2023-05-02T17:43:43.469Z,10.94
2023-05-02T17:46:11.665Z,10.83
2023-05-02T17:48:40.292Z,10.80
2023-05-02T17:51:09.544Z,10.79
2023-05-02T17:53:37.799Z,10.79
2023-05-02T17:56:07.456Z,10.71
2023-05-02T17:58:37.420Z,10.78
2023-05-02T18:01:09.209Z,10.65
2023-05-02T18:03:37.787Z,10.63
2023-05-02T18:06:06.538Z,10.55
2023-05-02T18:08:36.254Z,10.52
2023-05-02T18:11:04.216Z,10.65
2023-05-02T18:13:32.422Z,10.58
2023-05-02T18:16:03.243Z,10.56
2023-05-02T18:18:31.185Z,10.47
2023-05-02T18:20:59.867Z,10.30
2023-05-02T18:23:27.723Z,10.29
2023-05-02T18:25:56.945Z,10.29
2023-05-02T18:28:25.112Z,10.23
2023-05-02T18:30:53.211Z,10.22
2023-05-02T18:33:21.315Z,10.18
2023-05-02T18:35:49.865Z,10.26
2023-05-02T18:38:18.336Z,10.15
2023-05-02T18:40:46.545Z,10.08
2023-05-02T18:43:18.442Z,10.12
2023-05-02T18:45:47.570Z,10.05
2023-05-02T18:48:19.662Z,10.05
2023-05-02T18:50:47.785Z,9.92
2023-05-02T18:53:16.037Z,9.93
2023-05-02T18:55:43.955Z,9.93
2023-05-02T18:58:11.948Z,9.77
2023-05-02T19:00:44.766Z,9.80
2023-05-02T19:03:13.739Z,9.79
2023-05-02T19:05:42.248Z,9.71
2023-05-02T19:08:10.440Z,9.73
2023-05-02T19:10:38.399Z,9.63
2023-05-02T19:13:06.300Z,9.58
2023-05-02T19:15:34.974Z,9.63
2023-05-02T19:18:04.446Z,9.57
2023-05-02T19:20:32.415Z,9.52
2023-05-02T19:23:14.612Z,9.47
2023-05-02T19:25:46.125Z,9.53
2023-05-02T19:28:15.721Z,9.49
2023-05-02T19:30:44.519Z,9.55
2023-05-02T19:33:13.884Z,9.49
2023-05-02T19:35:42.264Z,9.48
2023-05-02T19:38:10.338Z,9.42
2023-05-02T19:40:38.643Z,9.50
2023-05-02T19:43:06.631Z,9.43
2023-05-02T19:45:35.205Z,9.35
2023-05-02T19:48:03.584Z,9.24
2023-05-02T19:50:33.423Z,9.27
2023-05-02T19:53:01.653Z,9.25
2023-05-02T19:55:29.551Z,9.15
2023-05-02T19:57:57.495Z,9.19
2023-05-02T20:00:25.401Z,9.23
2023-05-02T20:02:53.464Z,9.12
2023-05-02T20:05:21.685Z,9.17
2023-05-02T20:07:51.228Z,9.15
2023-05-02T20:10:19.381Z,9.05
2023-05-02T20:12:47.261Z,8.95
2023-05-02T20:15:16.419Z,8.94
2023-05-02T20:17:44.484Z,9.05
2023-05-02T20:20:13.113Z,9.08
2023-05-02T20:22:41.344Z,9.05
2023-05-02T20:25:12.474Z,8.97
2023-05-02T20:27:40.866Z,8.80
2023-05-02T20:30:09.642Z,8.85
2023-05-02T20:32:38.174Z,8.77
2023-05-02T20:35:07.202Z,8.77
2023-05-02T20:37:35.231Z,8.76
2023-05-02T20:40:04.396Z,8.80
2023-05-02T20:42:34.400Z,8.73
2023-05-02T20:45:07.107Z,8.70
2023-05-02T20:47:35.476Z,8.73
2023-05-02T20:50:03.658Z,8.68
2023-05-02T20:52:33.034Z,8.73
2023-05-02T20:55:01.723Z,8.84
2023-05-02T20:57:29.603Z,8.75
2023-05-02T20:59:59.517Z,8.72
2023-05-02T21:02:28.024Z,8.71
2023-05-02T21:04:56.688Z,8.67
2023-05-02T21:07:24.623Z,8.63
2023-05-02T21:09:52.662Z,8.58
2023-05-02T21:12:20.558Z,8.43
2023-05-02T21:14:48.425Z,8.42
2023-05-02T21:17:17.642Z,8.52
2023-05-02T21:19:45.523Z,8.48
2023-05-02T21:22:13.383Z,8.40
2023-05-02T21:24:41.705Z,8.33
2023-05-02T21:27:09.617Z,8.40
2023-05-02T21:29:37.466Z,8.41
2023-05-02T21:32:06.204Z,8.34
2023-05-02T21:34:35.608Z,8.44
2023-05-02T21:37:03.600Z,8.48
2023-05-02T21:39:31.461Z,8.45
2023-05-02T21:41:59.345Z,8.37
2023-05-02T21:44:27.446Z,8.43
2023-05-02T21:46:55.892Z,8.32
2023-05-02T21:49:23.800Z,8.32
2023-05-02T21:51:53.250Z,8.34
2023-05-02T21:54:22.360Z,8.24
2023-05-02T21:56:50.167Z,8.22
2023-05-02T21:59:18.035Z,8.23
2023-05-02T22:01:45.900Z,8.26
2023-05-02T22:04:14.093Z,8.26
2023-05-02T22:06:42.350Z,8.10
2023-05-02T22:09:11.695Z,7.96
2023-05-02T22:11:39.879Z,8.05
2023-05-02T22:14:07.729Z,7.88
2023-05-02T22:16:35.706Z,7.92
2023-05-02T22:19:03.664Z,7.86
2023-05-02T22:21:31.572Z,7.91
2023-05-02T22:23:59.488Z,7.83
2023-05-02T22:26:28.683Z,7.72
2023-05-02T22:28:56.532Z,7.68
2023-05-02T22:31:24.448Z,7.68
2023-05-02T22:33:52.438Z,7.72
2023-05-02T22:36:20.420Z,7.69
2023-05-02T22:38:48.331Z,7.81
2023-05-02T22:41:16.457Z,7.73
2023-05-02T22:43:45.895Z,7.68
2023-05-02T22:46:13.765Z,7.79
2023-05-02T22:48:42.876Z,7.71
2023-05-02T22:51:10.779Z,7.71
2023-05-02T22:53:38.778Z,7.72
2023-05-02T22:56:07.052Z,7.69
2023-05-02T22:58:34.903Z,7.72
2023-05-02T23:01:04.320Z,7.71
2023-05-02T23:03:32.374Z,7.75
2023-05-02T23:06:01.674Z,7.80
2023-05-02T23:08:29.991Z,7.67
2023-05-02T23:10:57.872Z,7.67
2023-05-02T23:13:25.954Z,7.74
2023-05-02T23:15:54.464Z,7.73
2023-05-02T23:18:24.308Z,7.70
2023-05-02T23:20:52.560Z,7.55
2023-05-02T23:23:20.425Z,7.40
2023-05-02T23:25:48.572Z,7.38
2023-05-02T23:28:16.744Z,7.43
2023-05-02T23:30:45.217Z,7.42
2023-05-02T23:33:13.145Z,7.50
2023-05-02T23:35:42.781Z,7.44
2023-05-02T23:38:10.919Z,7.44
2023-05-02T23:40:38.928Z,7.51
2023-05-02T23:43:07.521Z,7.52
2023-05-02T23:45:35.540Z,7.45
2023-05-02T23:48:03.522Z,7.44
2023-05-02T23:50:32.117Z,7.44
2023-05-02T23:53:01.448Z,7.34
2023-05-02T23:55:29.318Z,7.33
2023-05-02T23:57:57.220Z,7.33
